Авиационная погода в Виннице

Регион: 
Погода METAR: 
UKWW 221800Z 31005MPS 9999 NSC M05/M07 Q1013 NOSIG
Время наблюдения
2022-01-22T18:00:00Z
Температура C
-5.0
Точка росы
-7.0
Направление ветра
310
Скорость ветра (узлы)
10
Метео видимость
6.21
Облачность
CLR
Нижняя граница облачности (футы)
Явления погоды
Условия полета
VFR
Аэропорт подробнее: 
CLR — нет облаков ниже 3000 м